Diamond Island, Maine
Current Conditions -  °F | °C
As of 5:51 PM on Wednesday 26 Nov 2014 (Local Time) from KPWM Reporting Station
Heavy Snow Heavy Snow  
Wind Chill: -4°   Ceiling: 700
Heat Index:   Visibility: 0.25mi
Dew Point:   Wind: 14mph
Humidity: 92%   Direction: 20°NNE
Pressure: 30"   Gusts: NA
Location:  43.6801°N, 70.1969°W
Report Text: KPWM 262251Z 02012KT 1/4SM +SN FG OVC007 01/00 A3000 RMK AO2 SLP160 P0013 T00110000
Loading
Personal Weather Stations






























Interactive Weather Map New forecast layout! Learn more

10-Day Weather Forecast

Advertisements
Track Severe Weather on mobile